createdAt,value
2023-03-30T00:01:00.628Z,2.33
2023-03-30T00:03:29.272Z,1.97
2023-03-30T00:05:58.048Z,2.27
2023-03-30T00:08:28.399Z,1.80
2023-03-30T00:11:03.838Z,2.20
2023-03-30T00:13:32.922Z,1.73
2023-03-30T00:16:01.323Z,2.13
2023-03-30T00:18:30.696Z,2.93
2023-03-30T00:20:59.687Z,1.60
2023-03-30T00:23:28.312Z,1.90
2023-03-30T00:25:56.620Z,1.60
2023-03-30T00:28:27.104Z,1.73
2023-03-30T00:30:55.710Z,2.23
2023-03-30T00:33:37.163Z,1.93
2023-03-30T00:36:10.898Z,2.20
2023-03-30T00:38:39.304Z,2.47
2023-03-30T00:41:07.812Z,2.43
2023-03-30T00:43:37.572Z,1.97
2023-03-30T00:46:06.068Z,1.93
2023-03-30T00:48:36.403Z,3.10
2023-03-30T00:51:07.422Z,1.70
2023-03-30T00:53:37.114Z,2.33
2023-03-30T00:56:07.549Z,2.30
2023-03-30T00:58:38.665Z,1.93
2023-03-30T01:01:08.336Z,2.10
2023-03-30T01:03:39.317Z,1.57
2023-03-30T01:06:08.453Z,2.10
2023-03-30T01:08:38.086Z,1.83
2023-03-30T01:11:07.195Z,1.67
2023-03-30T01:13:37.891Z,1.57
2023-03-30T01:16:11.100Z,2.23
2023-03-30T01:18:47.711Z,2.00
2023-03-30T01:21:24.489Z,2.13
2023-03-30T01:24:04.580Z,1.83
2023-03-30T01:26:46.405Z,2.00
2023-03-30T01:29:22.842Z,1.60
2023-03-30T01:32:02.078Z,1.70
2023-03-30T01:34:37.225Z,1.80
2023-03-30T01:37:17.874Z,1.83
2023-03-30T01:39:55.633Z,1.50
2023-03-30T01:42:26.303Z,1.83
2023-03-30T01:44:57.475Z,1.47
2023-03-30T01:47:28.439Z,1.20
2023-03-30T01:50:01.289Z,1.70
2023-03-30T01:52:31.852Z,1.47
2023-03-30T01:55:04.721Z,1.90
2023-03-30T01:57:35.348Z,2.20
2023-03-30T02:00:13.161Z,1.80
2023-03-30T02:02:43.933Z,1.57
2023-03-30T02:05:13.231Z,2.07
2023-03-30T02:07:43.157Z,1.97
2023-03-30T02:10:16.116Z,1.80
2023-03-30T02:12:44.573Z,2.17
2023-03-30T02:15:14.321Z,1.97
2023-03-30T02:17:45.770Z,2.13
2023-03-30T02:20:16.359Z,2.13
2023-03-30T02:22:45.167Z,2.00
2023-03-30T02:25:15.638Z,1.77
2023-03-30T02:27:44.114Z,2.50
2023-03-30T02:30:12.652Z,2.40
2023-03-30T02:32:42.776Z,2.13
2023-03-30T02:35:32.394Z,2.10
2023-03-30T02:38:18.701Z,2.27
2023-03-30T02:40:54.390Z,1.87
2023-03-30T02:43:29.395Z,2.03
2023-03-30T02:46:04.368Z,1.80
2023-03-30T02:48:37.138Z,1.90
2023-03-30T02:51:12.986Z,2.73
2023-03-30T02:53:45.648Z,2.00
2023-03-30T02:56:17.118Z,2.10
2023-03-30T02:58:47.278Z,1.90
2023-03-30T03:01:18.282Z,2.43
2023-03-30T03:03:48.227Z,2.63
2023-03-30T03:06:16.773Z,2.43
2023-03-30T03:08:47.858Z,1.97
2023-03-30T03:11:17.830Z,2.53
2023-03-30T03:13:46.164Z,2.10
2023-03-30T03:16:16.467Z,2.37
2023-03-30T03:18:44.869Z,2.60
2023-03-30T03:21:14.297Z,2.47
2023-03-30T03:23:42.672Z,2.10
2023-03-30T03:26:12.691Z,2.57
2023-03-30T03:28:42.849Z,2.10
2023-03-30T03:31:12.205Z,2.33
2023-03-30T03:33:40.599Z,2.30
2023-03-30T03:36:09.324Z,2.57
2023-03-30T03:38:37.803Z,2.73
2023-03-30T03:41:06.859Z,3.73
2023-03-30T03:43:35.305Z,2.50
2023-03-30T03:46:04.996Z,2.40
2023-03-30T03:48:33.377Z,2.97
2023-03-30T03:51:01.881Z,2.37
2023-03-30T03:53:30.923Z,2.40
2023-03-30T03:55:59.544Z,2.60
2023-03-30T03:58:27.899Z,3.30
2023-03-30T04:00:59.718Z,3.87
2023-03-30T04:03:29.670Z,2.87
2023-03-30T04:06:00.347Z,3.07
2023-03-30T04:08:29.937Z,3.07
2023-03-30T04:10:58.484Z,3.03
2023-03-30T04:13:26.860Z,3.07
2023-03-30T04:15:55.507Z,2.83
2023-03-30T04:18:24.134Z,2.90
2023-03-30T04:20:54.008Z,2.87
2023-03-30T04:23:22.392Z,2.83
2023-03-30T04:28:35.234Z,3.43
2023-03-30T04:31:05.145Z,3.60
2023-03-30T04:33:38.884Z,3.57
2023-03-30T04:36:10.772Z,3.10
2023-03-30T04:38:55.129Z,4.77
2023-03-30T04:41:26.263Z,3.77
2023-03-30T04:43:54.565Z,4.40
2023-03-30T04:46:23.087Z,4.00
2023-03-30T04:48:51.380Z,4.00
2023-03-30T04:51:21.131Z,3.43
2023-03-30T04:54:01.340Z,3.33
2023-03-30T04:56:29.718Z,3.40
2023-03-30T04:58:58.153Z,3.50
2023-03-30T05:01:27.427Z,3.50
2023-03-30T05:03:55.927Z,3.33
2023-03-30T05:06:25.751Z,3.30
2023-03-30T05:08:54.199Z,3.10
2023-03-30T05:11:22.409Z,3.97
2023-03-30T05:13:52.411Z,3.07
2023-03-30T05:16:22.042Z,3.27
2023-03-30T05:18:51.805Z,4.00
2023-03-30T05:21:21.364Z,3.10
2023-03-30T05:23:52.939Z,3.27
2023-03-30T05:26:22.330Z,3.63
2023-03-30T05:28:51.616Z,3.60
2023-03-30T05:31:20.799Z,4.00
2023-03-30T05:33:49.618Z,2.87
2023-03-30T05:36:18.252Z,3.23
2023-03-30T05:38:47.561Z,3.70
2023-03-30T05:41:17.581Z,3.43
2023-03-30T05:43:47.547Z,3.50
2023-03-30T05:46:15.981Z,3.73
2023-03-30T05:48:44.305Z,4.13
2023-03-30T05:51:12.609Z,3.77
2023-03-30T05:53:41.732Z,3.57
2023-03-30T05:56:11.124Z,4.03
2023-03-30T05:58:40.857Z,3.87
2023-03-30T06:01:12.221Z,3.90
2023-03-30T06:03:42.225Z,3.80
2023-03-30T06:06:11.183Z,4.03
2023-03-30T06:08:39.794Z,4.90
2023-03-30T06:11:12.609Z,4.70
2023-03-30T06:13:42.821Z,3.83
2023-03-30T06:16:11.292Z,3.67
2023-03-30T06:18:39.765Z,3.63
2023-03-30T06:21:08.763Z,3.70
2023-03-30T06:23:38.028Z,3.90
2023-03-30T06:26:07.653Z,3.60
2023-03-30T06:28:36.109Z,3.60
2023-03-30T06:31:10.739Z,4.40
2023-03-30T06:33:50.269Z,4.03
2023-03-30T06:36:18.908Z,4.27
2023-03-30T06:38:48.388Z,3.60
2023-03-30T06:41:16.712Z,3.53
2023-03-30T06:43:45.047Z,4.07
2023-03-30T06:46:16.079Z,3.90
2023-03-30T06:48:44.477Z,3.67
2023-03-30T06:51:14.518Z,3.60
2023-03-30T06:53:42.988Z,3.47
2023-03-30T06:56:13.630Z,3.33
2023-03-30T06:58:43.317Z,3.63
2023-03-30T07:01:15.954Z,3.90
2023-03-30T07:03:45.772Z,4.20
2023-03-30T07:06:14.412Z,3.70
2023-03-30T07:08:42.888Z,2.93
2023-03-30T07:11:11.415Z,3.80
2023-03-30T07:13:40.143Z,4.23
2023-03-30T07:16:08.990Z,3.33
2023-03-30T07:18:37.427Z,3.03
2023-03-30T07:21:07.544Z,3.40
2023-03-30T07:23:36.193Z,3.67
2023-03-30T07:26:04.621Z,2.83
2023-03-30T07:28:33.179Z,3.20
2023-03-30T07:31:09.217Z,2.63
2023-03-30T07:33:38.176Z,3.37
2023-03-30T07:36:09.078Z,2.97
2023-03-30T07:38:47.325Z,3.27
2023-03-30T07:41:16.631Z,3.30
2023-03-30T07:43:45.169Z,2.90
2023-03-30T07:46:14.055Z,3.87
2023-03-30T07:48:42.857Z,2.57
2023-03-30T07:51:13.842Z,3.23
2023-03-30T07:53:44.535Z,3.37
2023-03-30T07:56:12.877Z,3.33
2023-03-30T07:59:29.461Z,3.10
2023-03-30T08:02:49.970Z,2.97
2023-03-30T09:45:01.832Z,2.90
2023-03-30T09:47:31.137Z,2.37
2023-03-30T09:50:00.064Z,3.10
2023-03-30T09:52:29.836Z,2.87
2023-03-30T09:54:58.612Z,2.33
2023-03-30T09:57:29.874Z,2.03
2023-03-30T10:00:09.768Z,2.63
2023-03-30T10:02:41.434Z,2.63
2023-03-30T10:05:25.873Z,2.30
2023-03-30T10:07:55.450Z,3.13
2023-03-30T10:10:31.991Z,2.53
2023-03-30T10:13:04.667Z,3.50
2023-03-30T10:15:36.317Z,3.37
2023-03-30T10:18:09.000Z,2.77
2023-03-30T10:20:39.005Z,3.23
2023-03-30T10:23:08.935Z,2.50
2023-03-30T10:25:38.525Z,2.37
2023-03-30T10:28:07.403Z,2.53
2023-03-30T10:30:37.810Z,2.77
2023-03-30T10:33:06.279Z,2.57
2023-03-30T10:35:36.108Z,2.63
2023-03-30T10:38:05.938Z,2.87
2023-03-30T10:40:36.697Z,2.40
2023-03-30T10:43:05.959Z,2.60
2023-03-30T10:45:36.603Z,2.50
2023-03-30T10:48:19.621Z,2.40
2023-03-30T10:50:52.212Z,3.10
2023-03-30T10:53:27.974Z,2.40
2023-03-30T10:56:00.221Z,2.60
2023-03-30T10:58:33.996Z,2.80
2023-03-30T11:01:11.144Z,2.83
2023-03-30T11:03:41.886Z,2.53
2023-03-30T11:06:13.711Z,2.73
2023-03-30T11:08:44.774Z,2.43
2023-03-30T11:11:16.905Z,2.53
2023-03-30T11:13:47.244Z,2.90
2023-03-30T11:16:18.712Z,2.90
2023-03-30T11:18:52.808Z,3.40
2023-03-30T11:21:23.203Z,3.30
2023-03-30T11:23:54.658Z,3.30
2023-03-30T11:26:27.415Z,3.10
2023-03-30T11:29:00.408Z,2.77
2023-03-30T11:31:34.411Z,2.83
2023-03-30T11:34:07.152Z,2.63
2023-03-30T11:36:40.032Z,2.63
2023-03-30T11:39:25.083Z,3.07
2023-03-30T11:42:02.695Z,2.37
2023-03-30T11:44:31.419Z,2.97
2023-03-30T11:47:05.278Z,2.50
2023-03-30T11:49:42.684Z,2.50
2023-03-30T11:52:17.876Z,2.33
2023-03-30T11:55:04.106Z,2.53
2023-03-30T11:57:36.097Z,2.03
2023-03-30T12:00:09.820Z,1.90
2023-03-30T12:02:42.956Z,2.63
2023-03-30T12:05:18.638Z,2.60
2023-03-30T12:07:50.819Z,3.03
2023-03-30T12:10:22.503Z,3.50
2023-03-30T12:12:52.026Z,2.37
2023-03-30T12:15:27.104Z,2.80
2023-03-30T12:17:56.976Z,2.30
2023-03-30T12:20:35.967Z,2.90
2023-03-30T12:23:06.757Z,3.07
2023-03-30T12:25:37.692Z,2.87
2023-03-30T12:28:12.276Z,3.00
2023-03-30T12:30:45.925Z,2.83
2023-03-30T12:33:14.940Z,2.77
2023-03-30T12:36:02.168Z,2.80
2023-03-30T12:38:39.119Z,2.80
2023-03-30T12:41:15.447Z,2.90
2023-03-30T12:43:49.601Z,2.70
2023-03-30T12:46:20.310Z,2.60
2023-03-30T12:48:55.629Z,3.17
2023-03-30T12:51:33.046Z,2.67
2023-03-30T12:54:16.496Z,2.67
2023-03-30T12:57:12.749Z,2.67
2023-03-30T13:13:47.528Z,4.00
2023-03-30T13:16:37.283Z,2.57
2023-03-30T13:19:15.510Z,2.07
2023-03-30T13:21:50.856Z,1.57
2023-03-30T13:24:33.906Z,2.10
2023-03-30T13:27:22.011Z,2.03
2023-03-30T13:29:55.509Z,2.33
2023-03-30T13:32:29.438Z,2.20
2023-03-30T13:35:11.815Z,2.07
2023-03-30T13:37:54.181Z,1.93
2023-03-30T13:40:39.697Z,1.60
2023-03-30T13:43:14.964Z,1.47
2023-03-30T13:45:47.263Z,1.60
2023-03-30T13:48:24.410Z,1.70
2023-03-30T13:50:55.314Z,1.43
2023-03-30T13:53:25.113Z,1.60
2023-03-30T13:55:53.423Z,1.23
2023-03-30T13:58:23.612Z,1.70
2023-03-30T14:00:53.000Z,1.73
2023-03-30T14:03:30.175Z,2.40
2023-03-30T14:06:03.520Z,1.93
2023-03-30T14:08:35.653Z,1.80
2023-03-30T14:11:06.965Z,1.70
2023-03-30T14:13:38.149Z,2.37
2023-03-30T14:16:07.885Z,2.00
2023-03-30T14:18:38.028Z,2.27
2023-03-30T14:21:08.561Z,2.17
2023-03-30T14:23:38.229Z,2.20
2023-03-30T14:26:08.213Z,1.97
2023-03-30T14:28:38.397Z,1.43
2023-03-30T14:31:13.422Z,2.00
2023-03-30T14:33:43.352Z,2.37
2023-03-30T14:36:12.732Z,2.10
2023-03-30T14:38:42.344Z,2.37
2023-03-30T14:41:12.284Z,2.27
2023-03-30T14:43:41.777Z,2.50
2023-03-30T14:46:12.412Z,2.90
2023-03-30T14:48:42.025Z,2.67
2023-03-30T14:51:23.667Z,2.87
2023-03-30T14:53:52.847Z,2.10
2023-03-30T14:56:22.649Z,3.17
2023-03-30T14:58:51.987Z,2.47
2023-03-30T15:01:24.742Z,2.47
2023-03-30T15:03:54.425Z,2.83
2023-03-30T15:06:25.208Z,2.70
2023-03-30T15:08:54.073Z,2.97
2023-03-30T15:11:23.319Z,2.27
2023-03-30T15:13:53.224Z,2.67
2023-03-30T15:16:23.788Z,2.47
2023-03-30T15:18:52.887Z,4.00
2023-03-30T15:21:21.890Z,2.70
2023-03-30T15:23:52.377Z,2.87
2023-03-30T15:26:21.318Z,3.00
2023-03-30T15:28:51.381Z,3.23
2023-03-30T15:31:20.645Z,2.97
2023-03-30T15:33:52.783Z,3.00
2023-03-30T15:36:22.999Z,2.77
2023-03-30T15:38:54.322Z,3.07
2023-03-30T15:41:24.691Z,3.00
2023-03-30T15:44:00.112Z,3.20
2023-03-30T15:46:29.250Z,3.60
2023-03-30T15:48:59.961Z,2.50
2023-03-30T15:54:31.163Z,2.47
2023-03-30T15:57:04.055Z,2.47
2023-03-30T15:59:33.513Z,2.90
2023-03-30T16:02:05.666Z,2.70
2023-03-30T16:04:34.621Z,2.80
2023-03-30T16:07:03.922Z,3.03
2023-03-30T16:09:33.748Z,2.60
2023-03-30T16:12:02.278Z,3.20
2023-03-30T16:14:32.997Z,3.17
2023-03-30T16:17:01.517Z,2.63
2023-03-30T16:19:30.264Z,2.87
2023-03-30T16:21:58.755Z,1.77
2023-03-30T16:24:27.159Z,2.93
2023-03-30T16:26:58.677Z,3.37
2023-03-30T16:29:27.722Z,3.13
2023-03-30T16:31:56.744Z,2.50
2023-03-30T16:34:27.683Z,2.97
2023-03-30T16:36:56.229Z,2.70
2023-03-30T16:39:25.386Z,3.93
2023-03-30T16:41:54.161Z,3.40
2023-03-30T16:44:24.869Z,3.10
2023-03-30T16:46:53.677Z,2.70
2023-03-30T16:49:23.685Z,2.90
2023-03-30T16:51:53.706Z,2.77
2023-03-30T16:54:32.025Z,3.00
2023-03-30T16:57:02.003Z,2.80
2023-03-30T16:59:32.594Z,3.20
2023-03-30T17:02:02.580Z,3.00
2023-03-30T17:04:31.014Z,3.00
2023-03-30T17:06:59.593Z,2.80
2023-03-30T17:09:28.005Z,2.97
2023-03-30T17:11:56.406Z,3.47
2023-03-30T17:14:24.888Z,3.03
2023-03-30T17:16:54.746Z,2.73
2023-03-30T17:19:23.086Z,3.00
2023-03-30T17:21:51.866Z,3.17
2023-03-30T17:24:20.241Z,2.87
2023-03-30T17:26:48.633Z,2.77
2023-03-30T17:29:16.947Z,3.07
2023-03-30T17:31:46.118Z,3.70
2023-03-30T17:34:16.272Z,2.83
2023-03-30T17:36:44.557Z,3.03
2023-03-30T17:39:14.606Z,2.67
2023-03-30T17:41:42.946Z,3.57
2023-03-30T17:44:11.329Z,3.07
2023-03-30T17:46:43.001Z,3.37
2023-03-30T17:49:16.338Z,2.90
2023-03-30T17:51:46.269Z,3.07
2023-03-30T17:54:14.772Z,3.10
2023-03-30T17:56:43.276Z,3.03
2023-03-30T17:59:12.125Z,3.23
2023-03-30T18:01:40.689Z,3.70
2023-03-30T18:04:09.320Z,3.33
2023-03-30T18:06:37.847Z,3.70
2023-03-30T18:09:08.175Z,3.67
2023-03-30T18:11:36.541Z,3.40
2023-03-30T18:14:04.958Z,3.10
2023-03-30T18:16:33.396Z,3.30
2023-03-30T18:19:04.301Z,3.50
2023-03-30T18:21:32.765Z,3.53
2023-03-30T18:24:03.053Z,3.83
2023-03-30T18:26:34.184Z,3.27
2023-03-30T18:29:03.281Z,3.70
2023-03-30T18:31:32.366Z,3.50
2023-03-30T18:34:00.756Z,3.00
2023-03-30T18:36:29.407Z,3.10
2023-03-30T18:38:58.863Z,3.50
2023-03-30T18:41:32.386Z,3.10
2023-03-30T18:44:02.758Z,3.20
2023-03-30T18:46:31.695Z,3.27
2023-03-30T18:49:01.277Z,3.37
2023-03-30T18:51:31.667Z,3.70
2023-03-30T18:54:00.052Z,2.80
2023-03-30T18:56:28.326Z,2.80
2023-03-30T18:58:57.361Z,2.80
2023-03-30T19:01:27.429Z,3.30
2023-03-30T19:03:55.810Z,3.20
2023-03-30T19:06:24.410Z,2.53
2023-03-30T19:08:55.141Z,2.90
2023-03-30T19:11:26.744Z,3.20
2023-03-30T19:13:55.073Z,2.90
2023-03-30T19:16:23.785Z,2.83
2023-03-30T19:18:53.825Z,2.90
2023-03-30T19:21:22.567Z,2.83
2023-03-30T19:23:51.608Z,2.87
2023-03-30T19:26:21.828Z,2.50
2023-03-30T19:28:51.010Z,2.47
2023-03-30T19:31:19.397Z,2.27
2023-03-30T19:33:48.009Z,2.30
2023-03-30T19:36:17.809Z,2.87
2023-03-30T19:38:46.529Z,2.40
2023-03-30T19:41:15.939Z,3.17
2023-03-30T19:43:45.615Z,2.80
2023-03-30T19:46:13.973Z,2.80
2023-03-30T19:48:43.156Z,2.47
2023-03-30T19:51:12.113Z,2.37
2023-03-30T19:53:42.944Z,2.40
2023-03-30T19:56:11.429Z,2.83
2023-03-30T19:58:39.907Z,2.50
2023-03-30T20:01:08.713Z,2.53
2023-03-30T20:03:37.488Z,2.30
2023-03-30T20:06:09.583Z,2.60
2023-03-30T20:08:40.205Z,2.43
2023-03-30T20:11:10.680Z,2.30
2023-03-30T20:13:45.416Z,2.17
2023-03-30T20:16:20.432Z,2.43
2023-03-30T20:18:50.658Z,1.90
2023-03-30T20:21:19.275Z,2.03
2023-03-30T20:23:48.216Z,2.27
2023-03-30T20:26:19.546Z,1.50
2023-03-30T20:28:48.277Z,1.53
2023-03-30T20:31:18.015Z,2.00
2023-03-30T20:33:47.265Z,1.70
2023-03-30T20:41:59.009Z,1.80
2023-03-30T20:44:31.794Z,1.70
2023-03-30T20:47:01.725Z,1.60
2023-03-30T20:49:30.197Z,1.70
2023-03-30T20:52:28.745Z,1.67
2023-03-30T20:54:57.360Z,1.90
2023-03-30T20:57:27.526Z,1.63
2023-03-30T20:59:56.027Z,2.03
2023-03-30T21:02:24.501Z,1.77
2023-03-30T21:04:53.048Z,2.03
2023-03-30T21:07:24.581Z,1.50
2023-03-30T21:09:52.791Z,1.63
2023-03-30T21:12:21.095Z,1.80
2023-03-30T21:14:50.947Z,1.97
2023-03-30T21:17:19.265Z,1.97
2023-03-30T21:19:47.570Z,1.70
2023-03-30T21:22:17.926Z,1.77
2023-03-30T21:24:46.496Z,1.77
2023-03-30T21:27:15.016Z,1.70
2023-03-30T21:29:43.369Z,1.63
2023-03-30T21:32:13.037Z,1.80
2023-03-30T21:34:41.388Z,1.93
2023-03-30T21:37:09.793Z,2.03
2023-03-30T21:39:38.259Z,1.83
2023-03-30T21:42:07.280Z,1.80
2023-03-30T21:44:35.705Z,2.10
2023-03-30T21:47:04.034Z,1.80
2023-03-30T21:49:34.186Z,1.70
2023-03-30T21:52:02.694Z,2.10
2023-03-30T21:54:31.090Z,1.97
2023-03-30T21:57:00.673Z,2.30
2023-03-30T21:59:29.250Z,1.63
2023-03-30T22:01:57.952Z,2.00
2023-03-30T22:04:26.456Z,2.10
2023-03-30T22:06:56.213Z,2.17
2023-03-30T22:09:24.774Z,1.90
2023-03-30T22:11:55.456Z,2.57
2023-03-30T22:14:24.213Z,2.07
2023-03-30T22:16:52.617Z,2.50
2023-03-30T22:19:22.905Z,2.50
2023-03-30T22:21:52.026Z,2.27
2023-03-30T22:24:21.830Z,2.40
2023-03-30T22:26:51.423Z,2.40
2023-03-30T22:29:34.183Z,2.40
2023-03-30T22:32:11.615Z,2.77
2023-03-30T22:34:41.036Z,2.60
2023-03-30T22:37:09.543Z,3.03
2023-03-30T22:39:39.917Z,2.23
2023-03-30T22:48:09.158Z,2.50
2023-03-30T22:50:37.950Z,2.90
2023-03-30T22:53:07.145Z,2.40
2023-03-30T22:55:36.963Z,3.00
2023-03-30T22:58:05.662Z,2.43
2023-03-30T23:00:34.100Z,2.90
2023-03-30T23:03:02.724Z,3.27
2023-03-30T23:05:34.136Z,3.27
2023-03-30T23:08:12.381Z,2.87
2023-03-30T23:10:46.038Z,3.20
2023-03-30T23:15:51.143Z,3.20
2023-03-30T23:18:19.636Z,3.17
2023-03-30T23:20:48.099Z,3.17
2023-03-30T23:23:17.177Z,3.40
2023-03-30T23:25:50.440Z,2.83
2023-03-30T23:28:19.126Z,3.40
2023-03-30T23:30:47.707Z,3.20
2023-03-30T23:33:16.519Z,3.40
2023-03-30T23:35:50.215Z,3.70
2023-03-30T23:38:18.747Z,3.30
2023-03-30T23:40:49.246Z,3.47
2023-03-30T23:43:29.937Z,3.63
2023-03-30T23:45:58.376Z,3.50
2023-03-30T23:48:27.179Z,3.10
2023-03-30T23:50:55.521Z,3.77
2023-03-30T23:53:25.014Z,3.70
2023-03-30T23:55:54.918Z,4.03
2023-03-30T23:58:23.630Z,3.73
